Trans Sea — 9HA2564 — position and weather

sailwx.info

Track history (hours):
 
Tides and Currents Weather Stations Pressure Air Temp Water Temp Dewpoint Dewpoint Depression Visibility Wind Speed Wind Dir Waves Ship Positions

Trans Sea

Last reported at 2017-Jul-27 19:10 UTC. Time now 2017-Jul-27 20:50 UTC.
Position N 36°49' E 001°32'.

Length 107 m; draft 7 m.

Type: Ship. MMSI: 248887000.

Date/timePositionNaut miles runAvg speedWind from/ knotsBaromVisibWave heightAir tempDewpointWater temp
2017-Jul-27 19:10N 36°49' E 001°32'212.5
2017-Jul-27 18:59N 36°49' E 001°29'5412.8
2017-Jul-27 14:47N 36°41' E 000°22'2012.9
2017-Jul-27 13:13N 36°38' W 000°03'312.7
2017-Jul-27 13:01N 36°38' W 000°06'612.5
2017-Jul-27 12:31N 36°37' W 000°14'712.5
2017-Jul-27 11:57N 36°36' W 000°22'1712.3
2017-Jul-27 10:34N 36°33' W 000°43'112.3
2017-Jul-27 10:29N 36°33' W 000°45'612.5
2017-Jul-27 10:00N 36°32' W 000°52'2512.7
2017-Jul-27 08:02N 36°28' W 001°22'112.6
2017-Jul-27 08:00N 36°28' W 001°23'3113.1
2017-Jul-27 05:39N 36°23' W 002°01'613.3
2017-Jul-27 05:13N 36°22' W 002°08'1113.2
2017-Jul-27 04:24N 36°20' W 002°21'13913.9
2017-Jul-26 18:23N 35°60' W 005°12'615.4
2017-Jul-26 18:00N 35°59' W 005°19'715.1
2017-Jul-26 17:31N 35°57' W 005°28'4813.7
2017-Jul-26 13:58N 35°57' W 006°28'913.6
2017-Jul-26 13:17N 35°59' W 006°39'413.3
2017-Jul-26 12:57N 36°00' W 006°44'4413.2
2017-Jul-26 09:38N 36°10' W 007°37'212.9
2017-Jul-26 09:30N 36°11' W 007°39'3912.9
2017-Jul-26 06:30N 36°20' W 008°26'612.9
2017-Jul-26 06:00N 36°21' W 008°34'713.1
2017-Jul-26 05:30N 36°23' W 008°41'613.0
2017-Jul-26 05:00N 36°24' W 008°49'612.9
2017-Jul-26 04:30N 36°26' W 008°57'713.0
2017-Jul-26 04:00N 36°27' W 009°05'713.0
2017-Jul-26 03:30N 36°29' W 009°13'612.6
2017-Jul-26 03:00N 36°31' W 009°20'612.5
2017-Jul-26 02:30N 36°35' W 009°26'612.7
2017-Jul-26 02:00N 36°39' W 009°32'613.1
2017-Jul-26 01:30N 36°44' W 009°37'612.9
2017-Jul-26 01:00N 36°50' W 009°39'713.2
2017-Jul-26 00:30N 36°57' W 009°41'713.4
2017-Jul-26 00:00N 37°03' W 009°43'713.3
2017-Jul-25 23:29N 37°10' W 009°44'713.5
2017-Jul-25 22:58N 37°17' W 009°46'613.4
2017-Jul-25 22:30N 37°23' W 009°48'713.4
2017-Jul-25 22:00N 37°30' W 009°49'713.2
2017-Jul-25 21:30N 37°36' W 009°51'713.2
2017-Jul-25 21:00N 37°42' W 009°53'713.1
2017-Jul-25 20:30N 37°49' W 009°56'713.5
2017-Jul-25 20:00N 37°55' W 009°58'713.4
2017-Jul-25 19:30N 38°02' W 009°60'713.2
2017-Jul-25 19:00N 38°08' W 010°02'713.3
2017-Jul-25 18:30N 38°15' W 010°04'713.2
2017-Jul-25 18:00N 38°21' W 010°06'713.2
2017-Jul-25 17:30N 38°28' W 010°07'713.3
2017-Jul-25 17:00N 38°34' W 010°09'713.3
2017-Jul-25 16:30N 38°41' W 010°11'612.7
2017-Jul-25 16:00N 38°47' W 010°12'612.8
2017-Jul-25 15:30N 38°53' W 010°12'612.6
2017-Jul-25 15:00N 38°59' W 010°12'1312.5
2017-Jul-25 14:00N 39°12' W 010°12'713.2
2017-Jul-25 13:30N 39°19' W 010°12'713.3
2017-Jul-25 13:00N 39°25' W 010°12'1013.0
2017-Jul-25 12:13N 39°35' W 010°12'612.9
2017-Jul-25 11:44N 39°42' W 010°11'313.1
2017-Jul-25 11:30N 39°45' W 010°11'912.9
2017-Jul-25 10:48N 39°54' W 010°11'  
2017-Jul-23 06:32N 49°38' W 003°52'010.5
2017-Jul-23 06:30N 49°38' W 003°52'7 9.9
2017-Jul-23 05:47N 49°42' W 003°42'310.0
2017-Jul-23 05:29N 49°43' W 003°38'510.3
2017-Jul-23 05:00N 49°46' W 003°32'510.4
2017-Jul-23 04:30N 49°48' W 003°25'511.0
2017-Jul-23 04:01N 49°51' W 003°17'1211.9
2017-Jul-23 02:58N 49°57' W 003°01'613.1
2017-Jul-23 02:30N 50°00' W 002°52'714.0
2017-Jul-23 02:01N 50°02' W 002°42'2515.3
2017-Jul-23 00:20N 50°09' W 002°03'515.3
2017-Jul-23 00:01N 50°10' W 001°56'714.6
2017-Jul-22 23:31N 50°12' W 001°45'713.5
2017-Jul-22 23:01N 50°14' W 001°35'612.5
2017-Jul-22 22:30N 50°16' W 001°25'41 9.9
2017-Jul-22 18:24N 50°27' W 000°23'410.6
2017-Jul-22 18:00N 50°28' W 000°17'611.3
2017-Jul-22 17:30N 50°30' W 000°09'612.1
2017-Jul-22 17:00N 50°31' E 000°00'712.7
2017-Jul-22 16:28N 50°33' E 000°11'613.3
2017-Jul-22 16:00N 50°35' E 000°20'713.6
2017-Jul-22 15:31N 50°37' E 000°30'713.2
2017-Jul-22 14:59N 50°40' E 000°40'2512.5
2017-Jul-22 13:01N 50°55' E 001°11'111.5
2017-Jul-22 12:54N 50°56' E 001°12'411.0
2017-Jul-22 12:31N 50°59' E 001°17'510.3
2017-Jul-22 12:00N 51°02' E 001°24'510.0
2017-Jul-22 11:31N 51°05' E 001°30'5 9.4
2017-Jul-22 11:01N 51°08' E 001°36'5 9.8
2017-Jul-22 10:31N 51°11' E 001°42'510.3
2017-Jul-22 10:01N 51°15' E 001°47'611.7
2017-Jul-22 09:31N 51°20' E 001°52'612.7
2017-Jul-22 09:00N 51°26' E 001°57'713.7
2017-Jul-22 08:30N 51°31' E 002°04'714.1
2017-Jul-22 08:00N 51°37' E 002°11'3713.3
2017-Jul-22 05:11N 52°02' E 002°57'413.4
2017-Jul-22 04:54N 52°02' E 003°03'613.4
2017-Jul-22 04:29N 52°02' E 003°12'714.9
2017-Jul-22 04:00N 52°03' E 003°24'611.2
2017-Jul-22 03:30N 52°04' E 003°33'612.1
2017-Jul-22 03:00N 52°04' E 003°42'612.4
2017-Jul-22 02:30N 52°03' E 003°52'510.1
2017-Jul-22 02:00N 52°01' E 003°59'611.8
2017-Jul-22 01:30N 51°58' E 004°08'510.5
2017-Jul-22 01:00N 51°55' E 004°15'3 5.5
2017-Jul-22 00:30N 51°53' E 004°18'0 0.0
2017-Jul-22 00:00N 51°53' E 004°18'0 0.0
2017-Jul-21 23:30N 51°53' E 004°18'0 0.0
2017-Jul-21 23:00N 51°53' E 004°18'0 0.0
2017-Jul-21 22:30N 51°53' E 004°18'0 0.0
2017-Jul-21 22:00N 51°53' E 004°18'0 0.0
2017-Jul-21 21:30N 51°53' E 004°18'0 0.0
2017-Jul-21 21:00N 51°53' E 004°18'0 0.0
2017-Jul-21 20:30N 51°53' E 004°18'0 0.0
2017-Jul-21 08:58N 51°53' E 004°18'0 0.0
2017-Jul-21 08:30N 51°53' E 004°18'0 0.0
2017-Jul-21 08:00N 51°53' E 004°18'0 0.0
2017-Jul-21 04:27N 51°53' E 004°18'0 0.0
2017-Jul-21 03:59N 51°53' E 004°18'0 0.0
2017-Jul-21 03:30N 51°53' E 004°18'0 0.0
2017-Jul-21 03:00N 51°53' E 004°18'0 0.0
2017-Jul-21 02:30N 51°53' E 004°18'0 0.0
2017-Jul-21 02:00N 51°53' E 004°18'0 0.0
2017-Jul-21 01:30N 51°53' E 004°18'0 0.0
2017-Jul-21 01:00N 51°53' E 004°18'0 0.0
2017-Jul-21 00:30N 51°53' E 004°18'0 0.0
2017-Jul-21 00:00N 51°53' E 004°18'0 0.0
2017-Jul-20 23:30N 51°53' E 004°18'0 0.0
2017-Jul-20 23:00N 51°53' E 004°18'0 0.0
2017-Jul-20 20:52N 51°53' E 004°18'0 0.0
2017-Jul-20 20:30N 51°53' E 004°18'0 0.0
2017-Jul-20 20:00N 51°53' E 004°18'0 0.0
2017-Jul-20 19:28N 51°53' E 004°18'0 0.0
2017-Jul-20 19:00N 51°53' E 004°18'0 0.5
2017-Jul-20 18:30N 51°53' E 004°18'3 5.0
2017-Jul-20 18:00N 51°55' E 004°15'611.2
2017-Jul-20 17:30N 51°58' E 004°08'612.3
2017-Jul-20 17:00N 51°60' E 003°59'611.8
2017-Jul-20 16:30N 51°60' E 003°49'3 6.4
2017-Jul-20 16:00N 52°02' E 003°45'3 6.8
2017-Jul-20 15:30N 52°04' E 003°40'23 2.1
2017-Jul-20 04:40N 51°54' E 003°06'413.3
2017-Jul-20 04:23N 51°50' E 003°09'1122.6
2017-Jul-20 03:55N 51°41' E 003°18'0 0.0
2017-Jul-20 03:30N 51°41' E 003°18'713.9
2017-Jul-20 03:00N 51°35' E 003°24'713.5
2017-Jul-20 02:30N 51°29' E 003°29'510.9
2017-Jul-20 02:00N 51°26' E 003°36'5 9.3
2017-Jul-20 01:30N 51°24' E 003°43'714.2
2017-Jul-20 01:01N 51°21' E 003°53'713.1
2017-Jul-20 00:30N 51°26' E 004°01'611.5
2017-Jul-20 00:00N 51°23' E 004°09'5 9.9
2017-Jul-19 23:30N 51°21' E 004°16'1 1.2
2017-Jul-19 23:00N 51°21' E 004°17'0 0.3
2017-Jul-19 22:30N 51°21' E 004°17'2 3.7
2017-Jul-19 22:00N 51°19' E 004°18'0 0.0
2017-Jul-19 03:44N 51°19' E 004°18'0 0.0
2017-Jul-19 03:23N 51°19' E 004°18'0 0.0
2017-Jul-19 03:00N 51°19' E 004°18'1 1.4
2017-Jul-19 02:30N 51°20' E 004°18'1 2.6
2017-Jul-19 02:00N 51°21' E 004°17'0 0.0
2017-Jul-19 01:30N 51°21' E 004°17'0 0.0
2017-Jul-19 01:00N 51°21' E 004°17'0 0.0
2017-Jul-19 00:30N 51°21' E 004°17'0 0.9
2017-Jul-19 00:00N 51°21' E 004°16'2 5.0
2017-Jul-18 23:30N 51°18' E 004°17'2 4.8
2017-Jul-18 23:01N 51°16' E 004°17'0 0.5
2017-Jul-18 22:11N 51°16' E 004°16'0 0.5
2017-Jul-18 21:06N 51°16' E 004°15'0 0.0
2017-Jul-18 20:54N 51°16' E 004°15'0 0.0
2017-Jul-18 19:42N 51°16' E 004°15'0 0.0
2017-Jul-18 19:27N 51°16' E 004°15'0 0.0
2017-Jul-18 18:30N 51°16' E 004°15'0 0.0
2017-Jul-18 17:54N 51°16' E 004°15'0 0.0
2017-Jul-18 17:18N 51°16' E 004°15'0 0.0
2017-Jul-18 16:54N 51°16' E 004°15'0 0.0
2017-Jul-18 16:27N 51°16' E 004°15'0 0.0
2017-Jul-18 15:54N 51°16' E 004°15'0 0.0
2017-Jul-18 14:45N 51°16' E 004°15'0 0.0
2017-Jul-18 13:57N 51°16' E 004°15'0 0.0
2017-Jul-18 13:21N 51°16' E 004°15'0 0.0
2017-Jul-18 12:57N 51°16' E 004°15'0 0.0
2017-Jul-18 12:12N 51°16' E 004°15'0 0.0
2017-Jul-18 12:00N 51°16' E 004°15'0 0.0
2017-Jul-18 11:30N 51°16' E 004°15'0 0.0
2017-Jul-18 09:09N 51°16' E 004°15'0 0.0
2017-Jul-18 06:51N 51°16' E 004°15'0 0.0
2017-Jul-18 06:30N 51°16' E 004°15'0 0.0
2017-Jul-18 06:00N 51°16' E 004°15'0 0.0
2017-Jul-18 04:21N 51°16' E 004°15'0 0.0
2017-Jul-18 03:12N 51°16' E 004°15'0 0.0
2017-Jul-18 02:57N 51°16' E 004°15'0 0.0
2017-Jul-18 02:24N 51°16' E 004°15'0 0.0
2017-Jul-18 01:57N 51°16' E 004°15'0 0.0
2017-Jul-18 00:50N 51°16' E 004°15'0 0.7
2017-Jul-18 00:30N 51°16' E 004°16'1 2.0
2017-Jul-18 00:00N 51°17' E 004°15'0 0.0
2017-Jul-17 23:30N 51°17' E 004°15'0 0.0
2017-Jul-17 23:00N 51°17' E 004°15'0 0.0
2017-Jul-17 22:30N 51°17' E 004°15'1 1.1
2017-Jul-17 22:00N 51°17' E 004°15'3 5.9
2017-Jul-17 21:30N 51°20' E 004°16'4 8.8
2017-Jul-17 21:00N 51°24' E 004°12'510.5
2017-Jul-17 20:30N 51°22' E 004°04'5 9.7
2017-Jul-17 20:00N 51°25' E 003°58'712.8
2017-Jul-17 19:29N 51°21' E 003°51'  
Track history (hours):
 
Tides and Currents Weather Stations Pressure Air Temp Water Temp Dewpoint Dewpoint Depression Visibility Wind Speed Wind Dir Waves Ship Positions

Trans Sea

Last reported at 2017-Jul-27 19:10 UTC. Time now 2017-Jul-27 20:50 UTC.
Position N 36°49' E 001°32'.

Length 107 m; draft 7 m.

Type: Ship. MMSI: 248887000.

Date/timePositionNaut miles runAvg speedWind from/ knotsBaromVisibWave heightAir tempDewpointWater temp
2017-Jul-27 19:10N 36°49' E 001°32'212.5
2017-Jul-27 18:59N 36°49' E 001°29'5412.8
2017-Jul-27 14:47N 36°41' E 000°22'2012.9
2017-Jul-27 13:13N 36°38' W 000°03'312.7
2017-Jul-27 13:01N 36°38' W 000°06'612.5
2017-Jul-27 12:31N 36°37' W 000°14'712.5
2017-Jul-27 11:57N 36°36' W 000°22'1712.3
2017-Jul-27 10:34N 36°33' W 000°43'112.3
2017-Jul-27 10:29N 36°33' W 000°45'612.5
2017-Jul-27 10:00N 36°32' W 000°52'2512.7
2017-Jul-27 08:02N 36°28' W 001°22'112.6
2017-Jul-27 08:00N 36°28' W 001°23'3113.1
2017-Jul-27 05:39N 36°23' W 002°01'613.3
2017-Jul-27 05:13N 36°22' W 002°08'1113.2
2017-Jul-27 04:24N 36°20' W 002°21'13913.9
2017-Jul-26 18:23N 35°60' W 005°12'615.4
2017-Jul-26 18:00N 35°59' W 005°19'715.1
2017-Jul-26 17:31N 35°57' W 005°28'4813.7
2017-Jul-26 13:58N 35°57' W 006°28'913.6
2017-Jul-26 13:17N 35°59' W 006°39'413.3
2017-Jul-26 12:57N 36°00' W 006°44'4413.2
2017-Jul-26 09:38N 36°10' W 007°37'212.9
2017-Jul-26 09:30N 36°11' W 007°39'3912.9
2017-Jul-26 06:30N 36°20' W 008°26'612.9
2017-Jul-26 06:00N 36°21' W 008°34'713.1
2017-Jul-26 05:30N 36°23' W 008°41'613.0
2017-Jul-26 05:00N 36°24' W 008°49'612.9
2017-Jul-26 04:30N 36°26' W 008°57'713.0
2017-Jul-26 04:00N 36°27' W 009°05'713.0
2017-Jul-26 03:30N 36°29' W 009°13'612.6
2017-Jul-26 03:00N 36°31' W 009°20'612.5
2017-Jul-26 02:30N 36°35' W 009°26'612.7
2017-Jul-26 02:00N 36°39' W 009°32'613.1
2017-Jul-26 01:30N 36°44' W 009°37'612.9
2017-Jul-26 01:00N 36°50' W 009°39'713.2
2017-Jul-26 00:30N 36°57' W 009°41'713.4
2017-Jul-26 00:00N 37°03' W 009°43'713.3
2017-Jul-25 23:29N 37°10' W 009°44'713.5
2017-Jul-25 22:58N 37°17' W 009°46'613.4
2017-Jul-25 22:30N 37°23' W 009°48'713.4
2017-Jul-25 22:00N 37°30' W 009°49'713.2
2017-Jul-25 21:30N 37°36' W 009°51'713.2
2017-Jul-25 21:00N 37°42' W 009°53'713.1
2017-Jul-25 20:30N 37°49' W 009°56'713.5
2017-Jul-25 20:00N 37°55' W 009°58'713.4
2017-Jul-25 19:30N 38°02' W 009°60'713.2
2017-Jul-25 19:00N 38°08' W 010°02'713.3
2017-Jul-25 18:30N 38°15' W 010°04'713.2
2017-Jul-25 18:00N 38°21' W 010°06'713.2
2017-Jul-25 17:30N 38°28' W 010°07'713.3
2017-Jul-25 17:00N 38°34' W 010°09'713.3
2017-Jul-25 16:30N 38°41' W 010°11'612.7
2017-Jul-25 16:00N 38°47' W 010°12'612.8
2017-Jul-25 15:30N 38°53' W 010°12'612.6
2017-Jul-25 15:00N 38°59' W 010°12'1312.5
2017-Jul-25 14:00N 39°12' W 010°12'713.2
2017-Jul-25 13:30N 39°19' W 010°12'713.3
2017-Jul-25 13:00N 39°25' W 010°12'1013.0
2017-Jul-25 12:13N 39°35' W 010°12'612.9
2017-Jul-25 11:44N 39°42' W 010°11'313.1
2017-Jul-25 11:30N 39°45' W 010°11'912.9
2017-Jul-25 10:48N 39°54' W 010°11'  
2017-Jul-23 06:32N 49°38' W 003°52'010.5
2017-Jul-23 06:30N 49°38' W 003°52'7 9.9
2017-Jul-23 05:47N 49°42' W 003°42'310.0
2017-Jul-23 05:29N 49°43' W 003°38'510.3
2017-Jul-23 05:00N 49°46' W 003°32'510.4
2017-Jul-23 04:30N 49°48' W 003°25'511.0
2017-Jul-23 04:01N 49°51' W 003°17'1211.9
2017-Jul-23 02:58N 49°57' W 003°01'613.1
2017-Jul-23 02:30N 50°00' W 002°52'714.0
2017-Jul-23 02:01N 50°02' W 002°42'2515.3
2017-Jul-23 00:20N 50°09' W 002°03'515.3
2017-Jul-23 00:01N 50°10' W 001°56'714.6
2017-Jul-22 23:31N 50°12' W 001°45'713.5
2017-Jul-22 23:01N 50°14' W 001°35'612.5
2017-Jul-22 22:30N 50°16' W 001°25'41 9.9
2017-Jul-22 18:24N 50°27' W 000°23'410.6
2017-Jul-22 18:00N 50°28' W 000°17'611.3
2017-Jul-22 17:30N 50°30' W 000°09'612.1
2017-Jul-22 17:00N 50°31' E 000°00'712.7
2017-Jul-22 16:28N 50°33' E 000°11'613.3
2017-Jul-22 16:00N 50°35' E 000°20'713.6
2017-Jul-22 15:31N 50°37' E 000°30'713.2
2017-Jul-22 14:59N 50°40' E 000°40'2512.5
2017-Jul-22 13:01N 50°55' E 001°11'111.5
2017-Jul-22 12:54N 50°56' E 001°12'411.0
2017-Jul-22 12:31N 50°59' E 001°17'510.3
2017-Jul-22 12:00N 51°02' E 001°24'510.0
2017-Jul-22 11:31N 51°05' E 001°30'5 9.4
2017-Jul-22 11:01N 51°08' E 001°36'5 9.8
2017-Jul-22 10:31N 51°11' E 001°42'510.3
2017-Jul-22 10:01N 51°15' E 001°47'611.7
2017-Jul-22 09:31N 51°20' E 001°52'612.7
2017-Jul-22 09:00N 51°26' E 001°57'713.7
2017-Jul-22 08:30N 51°31' E 002°04'714.1
2017-Jul-22 08:00N 51°37' E 002°11'3713.3
2017-Jul-22 05:11N 52°02' E 002°57'413.4
2017-Jul-22 04:54N 52°02' E 003°03'613.4
2017-Jul-22 04:29N 52°02' E 003°12'714.9
2017-Jul-22 04:00N 52°03' E 003°24'611.2
2017-Jul-22 03:30N 52°04' E 003°33'612.1
2017-Jul-22 03:00N 52°04' E 003°42'612.4
2017-Jul-22 02:30N 52°03' E 003°52'510.1
2017-Jul-22 02:00N 52°01' E 003°59'611.8
2017-Jul-22 01:30N 51°58' E 004°08'510.5
2017-Jul-22 01:00N 51°55' E 004°15'3 5.5
2017-Jul-22 00:30N 51°53' E 004°18'0 0.0
2017-Jul-22 00:00N 51°53' E 004°18'0 0.0
2017-Jul-21 23:30N 51°53' E 004°18'0 0.0
2017-Jul-21 23:00N 51°53' E 004°18'0 0.0
2017-Jul-21 22:30N 51°53' E 004°18'0 0.0
2017-Jul-21 22:00N 51°53' E 004°18'0 0.0
2017-Jul-21 21:30N 51°53' E 004°18'0 0.0
2017-Jul-21 21:00N 51°53' E 004°18'0 0.0
2017-Jul-21 20:30N 51°53' E 004°18'0 0.0
2017-Jul-21 08:58N 51°53' E 004°18'0 0.0
2017-Jul-21 08:30N 51°53' E 004°18'0 0.0
2017-Jul-21 08:00N 51°53' E 004°18'0 0.0
2017-Jul-21 04:27N 51°53' E 004°18'0 0.0
2017-Jul-21 03:59N 51°53' E 004°18'0 0.0
2017-Jul-21 03:30N 51°53' E 004°18'0 0.0
2017-Jul-21 03:00N 51°53' E 004°18'0 0.0
2017-Jul-21 02:30N 51°53' E 004°18'0 0.0
2017-Jul-21 02:00N 51°53' E 004°18'0 0.0
2017-Jul-21 01:30N 51°53' E 004°18'0 0.0
2017-Jul-21 01:00N 51°53' E 004°18'0 0.0
2017-Jul-21 00:30N 51°53' E 004°18'0 0.0
2017-Jul-21 00:00N 51°53' E 004°18'0 0.0
2017-Jul-20 23:30N 51°53' E 004°18'0 0.0
2017-Jul-20 23:00N 51°53' E 004°18'0 0.0
2017-Jul-20 20:52N 51°53' E 004°18'0 0.0
2017-Jul-20 20:30N 51°53' E 004°18'0 0.0
2017-Jul-20 20:00N 51°53' E 004°18'0 0.0
2017-Jul-20 19:28N 51°53' E 004°18'0 0.0
2017-Jul-20 19:00N 51°53' E 004°18'0 0.5
2017-Jul-20 18:30N 51°53' E 004°18'3 5.0
2017-Jul-20 18:00N 51°55' E 004°15'611.2
2017-Jul-20 17:30N 51°58' E 004°08'612.3
2017-Jul-20 17:00N 51°60' E 003°59'611.8
2017-Jul-20 16:30N 51°60' E 003°49'3 6.4
2017-Jul-20 16:00N 52°02' E 003°45'3 6.8
2017-Jul-20 15:30N 52°04' E 003°40'23 2.1
2017-Jul-20 04:40N 51°54' E 003°06'413.3
2017-Jul-20 04:23N 51°50' E 003°09'1122.6
2017-Jul-20 03:55N 51°41' E 003°18'0 0.0
2017-Jul-20 03:30N 51°41' E 003°18'713.9
2017-Jul-20 03:00N 51°35' E 003°24'713.5
2017-Jul-20 02:30N 51°29' E 003°29'510.9
2017-Jul-20 02:00N 51°26' E 003°36'5 9.3
2017-Jul-20 01:30N 51°24' E 003°43'714.2
2017-Jul-20 01:01N 51°21' E 003°53'713.1
2017-Jul-20 00:30N 51°26' E 004°01'611.5
2017-Jul-20 00:00N 51°23' E 004°09'5 9.9
2017-Jul-19 23:30N 51°21' E 004°16'1 1.2
2017-Jul-19 23:00N 51°21' E 004°17'0 0.3
2017-Jul-19 22:30N 51°21' E 004°17'2 3.7
2017-Jul-19 22:00N 51°19' E 004°18'0 0.0
2017-Jul-19 03:44N 51°19' E 004°18'0 0.0
2017-Jul-19 03:23N 51°19' E 004°18'0 0.0
2017-Jul-19 03:00N 51°19' E 004°18'1 1.4
2017-Jul-19 02:30N 51°20' E 004°18'1 2.6
2017-Jul-19 02:00N 51°21' E 004°17'0 0.0
2017-Jul-19 01:30N 51°21' E 004°17'0 0.0
2017-Jul-19 01:00N 51°21' E 004°17'0 0.0
2017-Jul-19 00:30N 51°21' E 004°17'0 0.9
2017-Jul-19 00:00N 51°21' E 004°16'2 5.0
2017-Jul-18 23:30N 51°18' E 004°17'2 4.8
2017-Jul-18 23:01N 51°16' E 004°17'0 0.5
2017-Jul-18 22:11N 51°16' E 004°16'0 0.5
2017-Jul-18 21:06N 51°16' E 004°15'0 0.0
2017-Jul-18 20:54N 51°16' E 004°15'0 0.0
2017-Jul-18 19:42N 51°16' E 004°15'0 0.0
2017-Jul-18 19:27N 51°16' E 004°15'0 0.0
2017-Jul-18 18:30N 51°16' E 004°15'0 0.0
2017-Jul-18 17:54N 51°16' E 004°15'0 0.0
2017-Jul-18 17:18N 51°16' E 004°15'0 0.0
2017-Jul-18 16:54N 51°16' E 004°15'0 0.0
2017-Jul-18 16:27N 51°16' E 004°15'0 0.0
2017-Jul-18 15:54N 51°16' E 004°15'0 0.0
2017-Jul-18 14:45N 51°16' E 004°15'0 0.0
2017-Jul-18 13:57N 51°16' E 004°15'0 0.0
2017-Jul-18 13:21N 51°16' E 004°15'0 0.0
2017-Jul-18 12:57N 51°16' E 004°15'0 0.0
2017-Jul-18 12:12N 51°16' E 004°15'0 0.0
2017-Jul-18 12:00N 51°16' E 004°15'0 0.0
2017-Jul-18 11:30N 51°16' E 004°15'0 0.0
2017-Jul-18 09:09N 51°16' E 004°15'0 0.0
2017-Jul-18 06:51N 51°16' E 004°15'0 0.0
2017-Jul-18 06:30N 51°16' E 004°15'0 0.0
2017-Jul-18 06:00N 51°16' E 004°15'0 0.0
2017-Jul-18 04:21N 51°16' E 004°15'0 0.0
2017-Jul-18 03:12N 51°16' E 004°15'0 0.0
2017-Jul-18 02:57N 51°16' E 004°15'0 0.0
2017-Jul-18 02:24N 51°16' E 004°15'0 0.0
2017-Jul-18 01:57N 51°16' E 004°15'0 0.0
2017-Jul-18 00:50N 51°16' E 004°15'0 0.7
2017-Jul-18 00:30N 51°16' E 004°16'1 2.0
2017-Jul-18 00:00N 51°17' E 004°15'0 0.0
2017-Jul-17 23:30N 51°17' E 004°15'0 0.0
2017-Jul-17 23:00N 51°17' E 004°15'0 0.0
2017-Jul-17 22:30N 51°17' E 004°15'1 1.1
2017-Jul-17 22:00N 51°17' E 004°15'3 5.9
2017-Jul-17 21:30N 51°20' E 004°16'4 8.8
2017-Jul-17 21:00N 51°24' E 004°12'510.5
2017-Jul-17 20:30N 51°22' E 004°04'5 9.7
2017-Jul-17 20:00N 51°25' E 003°58'712.8
2017-Jul-17 19:29N 51°21' E 003°51'  

Dump ship's entire track history